• Join FlightAware (Why Join?)
  • Login
  • US Flag 
06:21AM EDT


 

Airport Tracker/Info


-or-


 

Live Flight TrackerFlight Track Log ✈ DAL1117 ✈ 02-May-2013 ✈ KDTW - KLAS

Flight Track Log - Related Links

Times and Time Zones

All times are in EDT time to prevent confusion due to time zone crossing. See the DAL1117 flight status page for this flight to view local times or setup timezone preferences in your user account.

Time Position Orientation Groundspeed Altitude Reporting Facility
EDT Latitude Longitude Course Direction KTS MPH feet Rate Location/Type
09:59PM 42.2314 -83.3342 275° West 153 176 1,400  Level Cleveland Center
10:00PM 42.2561 -83.3381 353° North 186 214 2,100 1,020 Climbing Cleveland Center
10:01PM 42.3289 -83.3553 350° North 277 319 3,100 1,620 Climbing Cleveland Center
10:02PM 42.3088 -83.7771 285° West  Level FlightAware Approximate
10:02PM 42.3950 -83.3722 349° North 297 342 5,500  Level Cleveland Center
10:03PM 42.3473 -83.9186 292° West  Level FlightAware Approximate
10:03PM 42.4306 -83.4556 300° West 282 325 8,100  Level Cleveland Center
10:04PM 42.3893 -84.0587 292° West  Level FlightAware Approximate
10:04PM 42.4278 -83.5678 268° West 300 345 10,600  Level Cleveland Center
10:05PM 42.4180 -84.2026 275° West  Level FlightAware Approximate
10:05PM 42.4264 -83.6917 269° West 317 365 11,500  Level Cleveland Center
10:06PM 42.4267 -83.8322 270° West 349 402 13,900 3,000 Climbing Cleveland Center
10:07PM 42.4272 -83.9589 270° West 354 407 17,600 2,460 Climbing Cleveland Center
10:08PM 42.4258 -84.0797 269° West 341 392 18,900 1,440 Climbing Cleveland Center
10:09PM 42.4242 -84.2036 269° West 335 386 20,500 1,080 Climbing Cleveland Center
10:11PM 42.4358 -84.4803 273° West 364 419 22,500 780 Climbing Chicago Center
10:12PM 42.4411 -84.6694 272° West 413 475 23,100 1,260 Climbing Chicago Center
10:13PM 42.4444 -84.8286 272° West 423 487 25,200 1,500 Climbing Chicago Center
10:14PM 42.4472 -84.9881 271° West 423 487 26,200 1,440 Climbing Chicago Center
10:15PM 42.4506 -85.1447 272° West 419 482 28,200 1,440 Climbing Chicago Center
10:16PM 42.4531 -85.2969 271° West 409 471 29,200 840 Climbing Chicago Center
10:17PM 42.4561 -85.4544 272° West 414 476 30,000 720 Climbing Chicago Center
10:18PM 42.4586 -85.6131 271° West 419 482 30,700 720 Climbing Chicago Center
10:19PM 42.4614 -85.7711 271° West 421 484 31,500 1,260 Climbing Chicago Center
10:20PM 42.4631 -85.9250 271° West 410 472 33,300 960 Climbing Chicago Center
10:21PM 42.4639 -86.1064 270° West 402 463 33,500 240 Climbing Chicago Center
10:22PM 42.4450 -86.2606 261° West 414 476 33,800 180 Climbing Chicago Center
10:23PM 42.4261 -86.4158 261° West 418 481 33,900 60 Climbing Chicago Center
10:24PM 42.4056 -86.5747 260° West 426 490 34,000  Climbing Chicago Center
10:25PM 42.3858 -86.7386 261° West 432 497 34,000  Level Chicago Center
10:26PM 42.3669 -86.8964 261° West 429 494 34,000  Level Chicago Center
10:27PM 42.3447 -87.0544 259° West 430 495 34,000  Level Chicago Center
10:28PM 42.3219 -87.2108 259° West 428 493 34,000  Level Chicago Center
10:29PM 42.2978 -87.4014 260° West 432 497 34,000  Level Chicago Center
10:30PM 42.2753 -87.5597 259° West 430 495 34,000  Level Chicago Center
10:31PM 42.2536 -87.7150 259° West 425 489 34,000  Level Chicago Center
10:33PM 42.2322 -87.8722 260° West 427 491 34,000  Level Chicago Center
10:34PM 42.2083 -88.0275 258° West 426 490 34,000  Level Chicago Center
10:35PM 42.1750 -88.2111 256° West 423 487 34,000  Level Chicago Center
10:36PM 42.1478 -88.3647 257° West 424 488 34,000  Level Chicago Center
10:37PM 42.1211 -88.5150 257° West 420 483 34,000  Level Chicago Center
10:38PM 42.0947 -88.6647 257° West 417 480 34,000  Level Chicago Center
10:39PM 42.0667 -88.8147 256° West 418 481 34,000  Level Chicago Center
10:40PM 42.0386 -88.9678 256° West 423 487 34,000  Level Chicago Center
10:41PM 42.0058 -89.1494 256° West 423 487 34,000  Level Chicago Center
10:42PM 41.9772 -89.3000 256° West 419 482 34,000  Level Chicago Center
10:43PM 41.9494 -89.4511 256° West 420 483 34,000  Level Chicago Center
10:44PM 41.9203 -89.6017 255° West 422 486 34,000  Level Chicago Center
10:45PM 41.8925 -89.7506 256° West 417 480 34,000  Level Chicago Center
10:46PM 41.8631 -89.9025 255° West 422 486 34,000  Level Chicago Center
10:47PM 41.8344 -90.0572 256° West 426 490 34,000  Level Chicago Center
10:48PM 41.7981 -90.2394 255° West 426 490 34,000  Level Chicago Center
10:49PM 41.7689 -90.3872 255° West 424 488 34,000  Level Chicago Center
10:50PM 41.7394 -90.5394 256° West 424 488 34,000  Level Chicago Center
10:51PM 41.7081 -90.6953 255° West 427 491 34,000  Level Chicago Center
10:52PM 41.6911 -90.8542 262° West 436 502 34,000  Level Chicago Center
10:53PM 41.6772 -91.0103 263° West 428 493 34,000  Level Chicago Center
10:54PM 41.6633 -91.1686 263° West 430 495 34,000  Level Chicago Center
10:55PM 41.6489 -91.3269 263° West 431 496 34,000  Level Chicago Center
10:56PM 41.6322 -91.5161 263° West 429 494 34,000  Level Chicago Center
10:57PM 41.6181 -91.6722 263° West 426 490 34,000  Level Chicago Center
10:58PM 41.6031 -91.8281 263° West 426 490 34,000  Level Chicago Center
10:59PM 41.5881 -91.9825 263° West 424 488 34,000  Level Chicago Center
11:00PM 41.5728 -92.1386 263° West 425 489 34,000  Level Chicago Center
11:01PM 41.5569 -92.2906 262° West 420 483 34,000  Level Chicago Center
11:02PM 41.5422 -92.4458 263° West 421 484 34,000  Level Chicago Center
11:03PM 41.5261 -92.5997 262° West 421 484 34,000  Level Chicago Center
11:04PM 41.5089 -92.7706 262° West 423 487 34,000  Level Chicago Center
11:05PM 41.4931 -92.9275 262° West 427 491 34,000  Level Chicago Center
11:06PM 41.4772 -93.0819 262° West 424 488 34,000  Level Chicago Center
11:07PM 41.4594 -93.2378 261° West 429 494 34,000  Level Chicago Center
11:08PM 41.4425 -93.3972 262° West 437 503 34,000 120 Level Chicago Center
11:09PM 41.4219 -93.5881 262° West 437 503 34,300 780 Climbing Chicago Center
11:10PM 41.4050 -93.7417 262° West 425 489 35,700 780 Climbing Chicago Center
11:11PM 41.3883 -93.8872 261° West 405 466 36,000 120 Climbing Chicago Center
11:12PM 41.3714 -94.0386 262° West 415 478 36,000  Level Chicago Center
11:13PM 41.3536 -94.1897 261° West 417 480 36,000  Level Chicago Center
11:14PM 41.3356 -94.3422 261° West 419 482 36,000  Level Chicago Center
11:15PM 41.3164 -94.4944 261° West 421 484 36,000  Level Chicago Center
11:17PM 41.2972 -94.6797 262° West 421 484 36,000  Level Minneapolis Center
11:18PM 41.2822 -94.8011 261° West 418 481 36,000  Level Minneapolis Center
11:19PM 41.2597 -94.9819 261° West 415 478 36,000  Level Minneapolis Center
11:20PM 41.2414 -95.1344 261° West 416 479 36,000  Level Minneapolis Center
11:21PM 41.2178 -95.3189 260° West 421 484 36,000  Level Minneapolis Center
11:22PM 41.1972 -95.4744 260° West 425 489 36,000  Level Minneapolis Center
11:23PM 41.1781 -95.6194 260° West 432 497 36,100  Climbing Minneapolis Center
11:24PM 41.1592 -95.7764 261° West 431 496 36,100 -60 Level Minneapolis Center
11:25PM 41.1392 -95.9314 260° West 428 493 36,000 -60 Descending Minneapolis Center
11:26PM 41.1144 -96.1108 260° West 430 495 36,000  Level Minneapolis Center
11:27PM 41.0936 -96.2644 260° West 429 494 36,000  Level Minneapolis Center
11:28PM 41.0733 -96.4211 260° West 429 494 36,000  Level Minneapolis Center
11:29PM 41.0508 -96.5781 259° West 430 495 36,000  Level Minneapolis Center
11:30PM 41.0292 -96.7347 260° West 432 497 36,000  Level Minneapolis Center
11:31PM 41.0075 -96.8914 260° West 432 497 36,100  Climbing Minneapolis Center
11:32PM 40.9853 -97.0450 259° West 427 491 36,000 -60 Descending Minneapolis Center
11:33PM 40.9633 -97.1983 259° West 424 488 36,000 -60 Level Minneapolis Center
11:34PM 40.9408 -97.3514 259° West 424 488 35,900  Descending Minneapolis Center
11:35PM 40.9172 -97.5175 259° West 430 495 36,000  Climbing Minneapolis Center
11:36PM 40.8942 -97.6744 259° West 434 499 36,000  Level Minneapolis Center
11:37PM 40.8706 -97.8333 259° West 438 504 36,000  Level Minneapolis Center
11:38PM 40.8464 -97.9936 259° West 442 509 36,000  Level Minneapolis Center
11:39PM 40.8225 -98.1539 259° West 443 510 36,000  Level Minneapolis Center
11:40PM 40.7972 -98.3150 258° West 445 512 36,000  Level Minneapolis Center
11:41PM 40.7697 -98.4939 259° West 445 512 36,000  Level Minneapolis Center
11:42PM 40.7478 -98.6381 259° West 445 512 36,000  Level Minneapolis Center
11:43PM 40.7219 -98.7992 258° West 445 512 36,000  Level Minneapolis Center
11:44PM 40.6967 -98.9608 258° West 446 513 36,000  Level Minneapolis Center
11:45PM 40.6658 -99.1556 258° West 448 516 36,000  Level Minneapolis Center
11:45PM 40.6597 -99.1892 257° West 454 522 36,000  Level Denver Center
11:46PM 40.6328 -99.3503 258° West 448 516 36,000  Level Denver Center
11:48PM 40.6061 -99.5142 258° West 456 525 36,000  Level Denver Center
11:49PM 40.5786 -99.6761 257° West 453 521 36,000  Level Denver Center
11:50PM 40.5475 -99.8631 258° West 454 522 36,000  Level Denver Center
11:51PM 40.5217 -100.0175 258° West 451 519 36,000  Level Denver Center
11:52PM 40.4961 -100.1706 258° West 447 514 36,000  Level Denver Center
11:53PM 40.4644 -100.3503 257° West 449 517 36,000  Level Denver Center
11:54PM 40.4383 -100.5072 258° West 457 526 36,000  Level Denver Center
11:55PM 40.4097 -100.6642 257° West 460 529 36,000  Level Denver Center
11:56PM 40.3772 -100.8475 257° West 459 528 36,000  Level Denver Center
11:57PM 40.3494 -101.0028 257° West 456 525 36,100  Climbing Denver Center
11:58PM 40.3217 -101.1553 257° West 450 518 36,000 -120 Descending Denver Center
11:59PM 40.2886 -101.3344 256° West 451 519 35,900  Descending Denver Center
12:00AM 40.2611 -101.4878 257° West 451 519 36,000  Climbing Denver Center
12:01AM 40.2281 -101.6697 257° West 459 528 36,000  Level Denver Center
12:02AM 40.1986 -101.8239 256° West 457 526 36,000  Level Denver Center
12:03AM 40.1703 -101.9772 256° West 453 521 36,100  Climbing Denver Center
12:04AM 40.1364 -102.1547 256° West 450 518 36,000 -60 Descending Denver Center
12:05AM 40.1089 -102.3067 257° West 449 517 36,000  Level Denver Center
12:06AM 40.0742 -102.4844 256° West 452 520 36,000  Level Denver Center
12:07AM 40.0444 -102.6392 256° West 458 527 36,000  Level Denver Center
12:08AM 40.0114 -102.7950 255° West 457 526 36,000  Level Denver Center
12:09AM 39.9808 -102.9553 256° West 453 521 36,000  Level Denver Center
12:10AM 39.9506 -103.1128 256° West 446 513 36,000  Level Denver Center
12:11AM 39.9172 -103.2706 255° West 448 516 36,000  Level Denver Center
12:12AM 39.8856 -103.4281 255° West 447 514 36,000  Level Denver Center
12:13AM 39.8544 -103.5856 256° West 446 513 36,000  Level Denver Center
12:14AM 39.8225 -103.7400 255° West 439 505 36,000  Level Denver Center
12:15AM 39.7911 -103.8986 256° West 446 513 36,000  Level Denver Center
12:16AM 39.7525 -104.0794 255° West 441 507 36,000  Level Denver Center
12:18AM 39.6769 -104.4353 255° West 442 509 36,000  Level Salt Lake Center
12:19AM 39.6439 -104.5856 254° West 444 511 36,000  Level Salt Lake Center
12:20AM 39.6069 -104.7558 254° West 445 512 36,000  Level Salt Lake Center
12:21AM 39.5753 -104.8953 254° West 433 498 36,000  Level Salt Lake Center
12:23AM 39.5461 -105.0347 255° West 424 488 36,000  Level Salt Lake Center
12:24AM 39.5117 -105.2000 255° West 424 488 36,000  Level Salt Lake Center
12:25AM 39.4803 -105.3442 254° West 429 494 36,000  Level Salt Lake Center
12:26AM 39.4472 -105.4867 253° West 432 497 36,100  Climbing Salt Lake Center
12:27AM 39.4106 -105.6511 254° West 429 494 36,000 -60 Descending Salt Lake Center
12:28AM 39.3800 -105.7903 254° West 424 488 36,000  Level Salt Lake Center
12:29AM 39.3406 -105.9586 253° West 433 498 36,000  Level Salt Lake Center
12:30AM 39.3086 -106.1028 254° West 436 502 36,000  Level Salt Lake Center
12:31AM 39.2767 -106.2472 254° West 438 504 36,000  Level Salt Lake Center
12:32AM 39.2353 -106.4175 253° West 443 510 36,100  Climbing Salt Lake Center
12:33AM 39.2031 -106.5606 254° West 437 503 36,000 -60 Descending Salt Lake Center
12:34AM 39.1694 -106.7022 253° West 433 498 36,000  Level Salt Lake Center
12:35AM 39.1300 -106.8661 253° West 429 494 36,000  Level Salt Lake Center
12:36AM 39.0969 -107.0069 253° West 429 494 36,000  Level Salt Lake Center
12:37AM 39.0581 -107.1719 253° West 430 495 36,000  Level Salt Lake Center
12:38AM 39.0244 -107.3128 253° West 431 496 36,000  Level Salt Lake Center
12:39AM 38.9886 -107.4553 252° West 435 501 36,100  Climbing Salt Lake Center
12:40AM 38.9486 -107.6228 253° West 437 503 36,000 -120 Descending Salt Lake Center
12:40AM 38.9358 -107.6717 251° West 434 499 36,000  Level Denver Center
12:41AM 38.9008 -107.8131 252° West 433 498 36,000  Level Denver Center
12:42AM 38.8606 -107.9792 253° West 435 501 36,000  Level Denver Center
12:43AM 38.8236 -108.1233 252° West 441 507 36,000  Level Denver Center
12:44AM 38.7889 -108.2653 253° West 437 503 36,000  Level Denver Center
12:46AM 38.7233 -108.5231 252° West 434 499 36,000  Level Salt Lake Center
12:47AM 38.6883 -108.6642 252° West 434 499 36,000  Level Salt Lake Center
12:48AM 38.6517 -108.8050 252° West 434 499 36,000  Level Salt Lake Center
12:49AM 38.6222 -108.9244 253° West 437 503 36,000  Level Denver Center
12:50AM 38.5856 -109.0650 252° West 437 503 36,000  Level Denver Center
12:51AM 38.5431 -109.2292 252° West 436 502 36,000  Level Denver Center
12:52AM 38.5050 -109.3728 251° West 441 507 36,000  Level Denver Center
12:53AM 38.4686 -109.5125 252° West 437 503 36,000  Level Denver Center
12:54AM 38.4247 -109.6739 251° West 432 497 36,000  Level Denver Center
12:55AM 38.3878 -109.8108 251° West 428 493 36,000  Level Denver Center
12:56AM 38.3467 -109.9467 249° West 426 490 36,000  Level Denver Center
12:57AM 38.2850 -110.0992 243° Southwest 434 499 36,000  Level Denver Center
12:58AM 38.2317 -110.2297 243° Southwest 432 497 36,000  Level Denver Center
12:59AM 38.1794 -110.3614 243° Southwest 435 501 36,000  Level Denver Center
01:00AM 38.1178 -110.5128 243° Southwest 431 496 36,000  Level Denver Center
01:01AM 38.0650 -110.6411 242° Southwest 429 494 36,000  Level Denver Center
01:02AM 38.0117 -110.7692 242° Southwest 428 493 36,000  Level Denver Center
01:03AM 37.9533 -110.9128 243° Southwest 425 489 36,000  Level Denver Center
01:04AM 37.8986 -111.0456 242° Southwest 425 489 36,000  Level Denver Center
01:05AM 37.8447 -111.1769 243° Southwest 422 486 36,000  Level Denver Center
01:05AM 37.8222 -111.2294 242° Southwest 423 487 36,000 -120 Level Salt Lake Center
01:06AM 37.7672 -111.3606 242° Southwest 423 487 35,900 -600 Descending Salt Lake Center
01:07AM 37.7139 -111.4914 243° Southwest 420 483 34,900 -1,020 Descending Salt Lake Center
01:08AM 37.6564 -111.6250 242° Southwest 428 493 33,900 -960 Descending Salt Lake Center
01:09AM 37.6097 -111.7325 241° Southwest 435 501 33,100 -960 Descending Denver Center
01:10AM 37.5533 -111.8675 242° Southwest 435 501 32,100 -600 Descending Denver Center
01:11AM 37.4950 -112.0028 242° Southwest 439 505 32,000 -240 Descending Denver Center
01:12AM 37.4261 -112.1625 242° Southwest 438 504 31,700 -660 Descending Los Angeles Center
01:13AM 37.3653 -112.3008 241° Southwest 449 517 30,700 -960 Descending Los Angeles Center
01:14AM 37.3053 -112.4425 242° Southwest 456 525 29,800 -960 Descending Salt Lake Center
01:15AM 37.2428 -112.5833 241° Southwest 459 528 28,700 -1,020 Descending Salt Lake Center
01:16AM 37.1839 -112.7200 242° Southwest 449 517 27,800 -960 Descending Salt Lake Center
01:17AM 37.1233 -112.8550 241° Southwest 442 509 26,800 -1,020 Descending Los Angeles Center
01:18AM 37.0619 -112.9953 241° Southwest 453 521 25,800 -1,020 Descending Los Angeles Center
01:19AM 37.0011 -113.1328 241° Southwest 451 519 24,800 -960 Descending Los Angeles Center
01:20AM 36.9383 -113.2742 241° Southwest 461 531 23,900 -960 Descending Los Angeles Center
01:22AM 36.8769 -113.4117 241° Southwest 455 524 22,900 -1,140 Descending Los Angeles Center
01:23AM 36.8042 -113.5756 241° Southwest 450 518 21,700 -1,260 Descending Los Angeles Center
01:24AM 36.7422 -113.7106 240° Southwest 449 517 20,400 -1,560 Descending Los Angeles Center
01:25AM 36.6811 -113.8475 241° Southwest 452 520 18,600 -1,680 Descending Los Angeles Center
01:26AM 36.6203 -113.9811 240° Southwest 446 513 17,000 -1,680 Descending Los Angeles Center
01:27AM 36.5619 -114.1094 241° Southwest 433 498 15,200 -1,620 Descending Los Angeles Center
01:28AM 36.5083 -114.2278 241° Southwest 426 490 13,700 -1,740 Descending Los Angeles Center
01:28AM 36.4669 -114.3319 244° Southwest 416 479 12,300 -1,620 Descending Los Angeles Center
01:29AM 36.4500 -114.3528 225° Southwest 421 484 12,100 -240 Descending Los Angeles Center
01:30AM 36.3917 -114.4767 240° Southwest 351 404 12,000 -120 Descending Los Angeles Center
01:31AM 36.3128 -114.4942 190° South 307 353 11,900 -780 Descending Los Angeles Center
01:32AM 36.2272 -114.4992 183° South 306 352 10,500 -1,440 Descending Los Angeles Center
01:33AM 36.1439 -114.5036 182° South 299 344 9,000 -1,200 Descending Los Angeles Center
01:34AM 36.1036 -114.5858 239° Southwest 284 327 8,000 -540 Descending Los Angeles Center
01:35AM 36.0853 -114.6781 256° West 301 346 8,000 -180 Level Los Angeles Center
01:36AM 36.0736 -114.7725 261° West 275 316 7,700 -300 Descending Los Angeles Center